Time;durP1;ratioP1;P1;durP2;ratioP2;P2;SDS_P1;SDS_P2;PMS_P1;PMS_P2;Temp;Humidity;BMP_temperature;BMP_pressure;BME280_temperature;BME280_humidity;BME280_pressure;Samples;Min_cycle;Max_cycle;Signal;HPM_P1;HPM_P2
2023/08/27 00:01:55;;;;;;;;;0.00;0.00;;;;;17.14;90.83;100946.09;5083205;27;45412;-73
2023/08/27 00:04:20;;;;;;;;;0.00;0.00;;;;;17.27;91.84;100957.63;5100334;27;45278;-74
2023/08/27 00:06:45;;;;;;;;;1.00;1.00;;;;;17.19;91.56;100943.94;5087742;27;46173;-73
2023/08/27 00:09:11;;;;;;;;;1.00;1.00;;;;;17.29;93.39;100960.16;5064588;27;45372;-74
2023/08/27 00:11:36;;;;;;;;;0.67;0.67;;;;;17.16;93.97;100949.50;5093004;27;45332;-73
2023/08/27 00:14:03;;;;;;;;;0.00;0.00;;;;;17.22;95.48;100953.53;5096023;27;45535;-74
2023/08/27 00:16:28;;;;;;;;;1.00;1.00;;;;;17.24;95.76;100949.81;5098276;27;45519;-74
2023/08/27 00:18:53;;;;;;;;;0.00;0.00;;;;;17.11;95.67;100939.13;5096017;27;45177;-73
2023/08/27 00:21:19;;;;;;;;;0.00;0.00;;;;;17.20;94.88;100964.38;5081048;27;45400;-74
2023/08/27 00:23:44;;;;;;;;;0.00;0.00;;;;;17.11;95.59;100954.34;5078388;27;45371;-74
2023/08/27 00:26:09;;;;;;;;;1.00;1.00;;;;;16.98;96.38;100940.97;5082207;27;45990;-74
2023/08/27 00:28:35;;;;;;;;;1.00;1.00;;;;;17.11;98.42;100952.50;5100638;27;45328;-73
2023/08/27 00:31:04;;;;;;;;;0.33;0.33;;;;;17.01;97.52;100940.78;5077941;27;45442;-74
2023/08/27 00:33:30;;;;;;;;;2.00;1.00;;;;;17.09;97.55;100956.25;5083735;27;45525;-73
2023/08/27 00:35:55;;;;;;;;;1.00;1.00;;;;;16.98;98.18;100934.81;5082789;27;46119;-73
2023/08/27 00:38:21;;;;;;;;;0.67;0.67;;;;;17.08;97.80;100947.38;5097056;27;45372;-73
2023/08/27 00:40:46;;;;;;;;;0.33;0.33;;;;;16.83;95.72;100907.34;5100795;27;45210;-73
2023/08/27 00:43:12;;;;;;;;;2.00;1.00;;;;;16.88;95.45;100923.91;5083987;27;45438;-74
2023/08/27 00:45:37;;;;;;;;;0.00;0.00;;;;;16.94;96.92;100935.97;5073249;27;48263;-73
2023/08/27 00:48:03;;;;;;;;;1.00;1.00;;;;;16.87;97.37;100929.38;5084906;27;45296;-73
2023/08/27 00:50:30;;;;;;;;;0.00;0.00;;;;;16.79;96.19;100918.34;5099153;27;45338;-73
2023/08/27 00:52:56;;;;;;;;;0.00;0.00;;;;;16.91;95.62;100942.41;5096012;27;45460;-74
2023/08/27 00:55:22;;;;;;;;;0.00;0.00;;;;;16.90;95.90;100943.34;5095291;27;46391;-73
2023/08/27 00:57:48;;;;;;;;;0.00;0.00;;;;;16.77;96.37;100931.84;5103426;27;45320;-73
2023/08/27 01:00:15;;;;;;;;;0.00;0.00;;;;;16.69;96.81;100923.50;5101952;27;45475;-73
2023/08/27 01:02:42;;;;;;;;;0.33;0.00;;;;;16.82;96.91;100943.03;5089555;27;45298;-73
2023/08/27 01:05:08;;;;;;;;;0.00;0.00;;;;;16.64;98.20;100928.31;5102383;27;46489;-73
2023/08/27 01:07:40;;;;;;;;;1.00;1.00;;;;;16.77;96.48;100953.19;5096367;27;45423;-73
2023/08/27 01:10:14;;;;;;;;;0.00;0.00;;;;;16.74;96.71;100953.41;5093698;27;45374;-73
2023/08/27 01:13:02;;;;;;;;;1.00;1.00;;;;;16.72;97.93;100946.47;5079474;27;45530;-73
2023/08/27 01:15:29;;;;;;;;;0.67;0.67;;;;;16.64;98.46;100937.19;5084526;27;45296;-73
2023/08/27 01:17:57;;;;;;;;;0.33;0.33;;;;;16.50;98.13;100918.56;5091866;27;45278;-73
2023/08/27 01:20:23;;;;;;;;;0.00;0.00;;;;;16.41;97.72;100905.00;5097240;27;45547;-73
2023/08/27 01:22:48;;;;;;;;;1.00;1.00;;;;;16.53;99.68;100930.84;5088669;27;45369;-73
2023/08/27 01:25:19;;;;;;;;;0.00;0.00;;;;;16.41;99.65;100908.53;5094759;27;46070;-73
2023/08/27 01:28:13;;;;;;;;;1.00;1.00;;;;;16.54;100.00;100932.56;5094138;27;45233;-73
2023/08/27 01:30:55;;;;;;;;;1.00;1.00;;;;;16.55;100.00;100934.31;5076447;27;45321;-73
2023/08/27 01:33:25;;;;;;;;;1.00;1.00;;;;;16.42;100.00;100925.41;5063245;27;45331;-73
2023/08/27 01:35:51;;;;;;;;;2.33;0.67;;;;;16.53;100.00;100944.19;5081183;27;45465;-73
2023/08/27 01:38:18;;;;;;;;;1.33;1.00;;;;;16.52;100.00;100943.31;5084654;27;45420;-73
2023/08/27 01:40:43;;;;;;;;;1.00;1.00;;;;;16.35;100.00;100913.44;5097382;27;45353;-74
2023/08/27 01:43:09;;;;;;;;;2.00;0.00;;;;;16.48;100.00;100933.00;5091927;27;45336;-73
2023/08/27 01:45:34;;;;;;;;;1.00;1.00;;;;;16.40;100.00;100921.97;5091542;27;46331;-73
2023/08/27 01:48:00;;;;;;;;;0.00;0.00;;;;;16.23;100.00;100912.47;5098652;27;45445;-73
2023/08/27 01:50:25;;;;;;;;;0.00;0.00;;;;;16.37;100.00;100941.72;5099227;27;45516;-74
2023/08/27 01:52:50;;;;;;;;;1.00;1.00;;;;;16.25;100.00;100926.56;5087622;27;45422;-73
2023/08/27 01:55:16;;;;;;;;;0.33;0.33;;;;;16.33;100.00;100952.75;5097370;27;45939;-73
2023/08/27 01:57:41;;;;;;;;;0.00;0.00;;;;;16.27;100.00;100927.31;5092074;27;45320;-73
2023/08/27 02:00:11;;;;;;;;;0.67;0.67;;;;;16.26;100.00;100930.97;5077274;27;45725;-74
2023/08/27 02:02:36;;;;;;;;;1.00;0.67;;;;;16.21;100.00;100922.41;5090802;27;45541;-73
2023/08/27 02:05:06;;;;;;;;;1.00;1.00;;;;;16.20;100.00;100918.00;5076403;27;47310;-73
2023/08/27 02:07:34;;;;;;;;;1.00;0.33;;;;;16.35;100.00;100945.47;5081994;27;45307;-74
2023/08/27 02:10:00;;;;;;;;;1.00;1.00;;;;;16.31;100.00;100943.97;5084461;27;45639;-74
2023/08/27 02:12:25;;;;;;;;;0.67;0.67;;;;;16.09;100.00;100907.22;5097630;27;45433;-73
2023/08/27 02:14:50;;;;;;;;;0.00;0.00;;;;;16.30;100.00;100947.59;5098240;27;45477;-73
2023/08/27 02:17:16;;;;;;;;;0.00;0.00;;;;;16.30;100.00;100955.59;5087778;27;45465;-73
2023/08/27 02:19:41;;;;;;;;;0.00;0.00;;;;;16.23;100.00;100943.66;5092351;27;45472;-73
2023/08/27 02:22:06;;;;;;;;;0.00;0.00;;;;;16.16;100.00;100936.03;5095638;27;45399;-73
2023/08/27 02:24:32;;;;;;;;;1.00;1.00;;;;;16.25;100.00;100950.59;5099021;27;45450;-73
2023/08/27 02:26:57;;;;;;;;;1.00;1.00;;;;;16.20;100.00;100942.03;5077455;28;45544;-73
2023/08/27 02:29:22;;;;;;;;;0.00;0.00;;;;;16.15;100.00;100937.03;5094451;27;45482;-74
2023/08/27 02:31:48;;;;;;;;;0.00;0.00;;;;;16.07;100.00;100927.81;5092540;27;45438;-73
2023/08/27 02:34:14;;;;;;;;;0.00;0.00;;;;;16.16;100.00;100945.88;5095072;27;45366;-74
2023/08/27 02:36:39;;;;;;;;;0.00;0.00;;;;;16.13;100.00;100951.44;5090323;27;45363;-73
2023/08/27 02:39:05;;;;;;;;;0.00;0.00;;;;;15.89;100.00;100915.72;5098712;27;45323;-73
2023/08/27 02:41:30;;;;;;;;;2.00;0.33;;;;;15.95;100.00;100933.97;5097815;27;45284;-73
2023/08/27 02:43:55;;;;;;;;;1.00;1.00;;;;;16.07;100.00;100942.00;5097487;27;45317;-73
2023/08/27 02:46:21;;;;;;;;;1.00;0.67;;;;;15.95;100.00;100926.84;5089438;27;45384;-73
2023/08/27 02:48:46;;;;;;;;;0.67;0.67;;;;;16.01;100.00;100941.56;5093264;27;45643;-73
2023/08/27 02:51:11;;;;;;;;;1.00;1.00;;;;;15.96;100.00;100938.38;5094976;27;45517;-73
2023/08/27 02:53:37;;;;;;;;;0.00;0.00;;;;;15.68;100.00;100902.00;5095552;27;45320;-74
2023/08/27 02:56:02;;;;;;;;;0.67;0.67;;;;;15.87;100.00;100933.66;5078439;27;45276;-73
2023/08/27 02:58:28;;;;;;;;;2.00;1.00;;;;;15.87;100.00;100934.47;5095642;27;45305;-73
2023/08/27 03:00:53;;;;;;;;;0.67;0.67;;;;;15.86;100.00;100940.81;5082325;27;45444;-74
2023/08/27 03:03:19;;;;;;;;;0.33;0.33;;;;;15.72;100.00;100921.31;5102134;27;45267;-74
2023/08/27 03:05:44;;;;;;;;;2.00;1.00;;;;;15.72;100.00;100930.19;5095779;27;45275;-73
2023/08/27 03:08:09;;;;;;;;;0.67;0.67;;;;;15.73;100.00;100941.72;5080560;28;45406;-72
2023/08/27 03:10:35;;;;;;;;;2.00;1.00;;;;;15.80;100.00;100948.34;5101626;27;45453;-73
2023/08/27 03:13:00;;;;;;;;;0.00;0.00;;;;;15.60;100.00;100920.34;5082122;27;45602;-73
2023/08/27 03:15:25;;;;;;;;;0.67;0.67;;;;;15.75;100.00;100953.97;5097577;27;45970;-73
2023/08/27 03:17:51;;;;;;;;;0.67;0.67;;;;;15.71;100.00;100948.94;5092749;27;45502;-73
2023/08/27 03:20:16;;;;;;;;;1.00;1.00;;;;;15.61;100.00;100924.69;5088636;27;45678;-73
2023/08/27 03:22:41;;;;;;;;;0.67;0.67;;;;;15.61;100.00;100941.56;5089017;27;46636;-73
2023/08/27 03:25:07;;;;;;;;;2.67;0.67;;;;;15.56;100.00;100921.50;5094085;27;45289;-73
2023/08/27 03:27:34;;;;;;;;;0.67;0.33;;;;;15.61;100.00;100949.56;5094260;27;45359;-74
2023/08/27 03:29:59;;;;;;;;;0.67;0.67;;;;;15.47;100.00;100925.59;5082368;27;45442;-73
2023/08/27 03:32:24;;;;;;;;;1.00;1.00;;;;;15.54;100.00;100934.06;5101157;27;45994;-74
2023/08/27 03:34:50;;;;;;;;;0.00;0.00;;;;;15.62;100.00;100950.41;5075062;27;45493;-74
2023/08/27 03:37:15;;;;;;;;;1.00;1.00;;;;;15.56;100.00;100953.47;5096785;27;45286;-73
2023/08/27 03:39:40;;;;;;;;;1.00;1.00;;;;;15.37;100.00;100918.28;5086478;27;45372;-73
2023/08/27 03:42:06;;;;;;;;;1.00;1.00;;;;;15.51;100.00;100945.78;5095733;27;45403;-73
2023/08/27 03:44:31;;;;;;;;;2.33;1.00;;;;;15.53;100.00;100961.69;5093291;27;45300;-73
2023/08/27 03:46:56;;;;;;;;;0.33;0.33;;;;;15.42;100.00;100954.34;5095699;27;45490;-74
2023/08/27 03:49:22;;;;;;;;;1.67;0.00;;;;;15.36;100.00;100948.56;5087328;27;45449;-74
2023/08/27 03:51:47;;;;;;;;;1.33;1.00;;;;;15.42;100.00;100974.81;5100790;27;46460;-74
2023/08/27 03:54:12;;;;;;;;;3.33;1.00;;;;;15.44;100.00;100967.59;5095985;27;45190;-74
2023/08/27 03:56:38;;;;;;;;;0.67;0.67;;;;;15.21;100.00;100938.88;5092913;27;45880;-74
2023/08/27 03:59:03;;;;;;;;;0.67;0.33;;;;;15.15;100.00;100937.44;5098298;27;45500;-74
2023/08/27 04:01:29;;;;;;;;;0.00;0.00;;;;;15.33;100.00;100972.75;5093719;27;45377;-74
2023/08/27 04:03:55;;;;;;;;;0.00;0.00;;;;;15.30;100.00;100973.78;5103431;27;45252;-74
2023/08/27 04:06:21;;;;;;;;;1.00;1.00;;;;;15.30;100.00;100975.59;5095670;27;45466;-73
2023/08/27 04:08:47;;;;;;;;;0.67;0.67;;;;;15.14;100.00;100959.75;5095575;27;45313;-74
2023/08/27 04:11:12;;;;;;;;;4.67;0.67;;;;;15.31;100.00;100990.66;5093711;27;45328;-74
2023/08/27 04:13:38;;;;;;;;;0.67;0.67;;;;;15.21;100.00;100984.19;5096400;27;45352;-74
2023/08/27 04:16:06;;;;;;;;;0.67;0.67;;;;;15.18;100.00;100985.25;5085774;27;45334;-74
2023/08/27 04:18:33;;;;;;;;;1.67;0.00;;;;;15.21;100.00;100993.03;5084779;27;45211;-74
2023/08/27 04:20:58;;;;;;;;;0.33;0.33;;;;;15.11;100.00;100975.91;5087548;27;45656;-74
2023/08/27 04:23:24;;;;;;;;;2.33;1.00;;;;;15.15;100.00;100981.91;5080479;27;45347;-74
2023/08/27 04:25:50;;;;;;;;;2.00;2.00;;;;;14.84;100.00;100932.38;5093936;27;45302;-74
2023/08/27 04:28:16;;;;;;;;;1.00;1.00;;;;;15.11;100.00;100976.78;5096125;27;45526;-74
2023/08/27 04:30:44;;;;;;;;;0.67;0.67;;;;;15.09;100.00;100977.81;5098827;27;45427;-74
2023/08/27 04:33:10;;;;;;;;;2.00;2.00;;;;;15.10;100.00;100983.06;5096671;27;45385;-73
2023/08/27 04:35:36;;;;;;;;;1.00;1.00;;;;;15.03;100.00;100970.22;5090647;27;45424;-74
2023/08/27 04:38:03;;;;;;;;;0.67;0.67;;;;;14.96;100.00;100972.41;5081446;27;46011;-74
2023/08/27 04:40:29;;;;;;;;;2.00;0.67;;;;;14.95;100.00;100968.00;5094609;27;46006;-74
2023/08/27 04:42:54;;;;;;;;;1.67;0.00;;;;;15.02;100.00;100988.00;5100332;27;45339;-74
2023/08/27 04:45:19;;;;;;;;;1.00;1.00;;;;;14.75;100.00;100947.13;5099472;27;45391;-75
2023/08/27 04:47:45;;;;;;;;;2.00;2.00;;;;;15.07;100.00;100996.56;5086552;27;45527;-73
2023/08/27 04:50:10;;;;;;;;;3.67;1.33;;;;;15.07;100.00;101003.69;5083878;27;46039;-74
2023/08/27 04:52:36;;;;;;;;;0.67;0.67;;;;;15.03;100.00;101018.16;5090221;27;45548;-74
2023/08/27 04:55:05;;;;;;;;;0.67;0.67;;;;;15.04;100.00;101012.75;5097708;27;45288;-74
2023/08/27 04:57:31;;;;;;;;;2.00;2.00;;;;;14.91;100.00;100990.50;5086774;27;45395;-74
2023/08/27 04:59:56;;;;;;;;;0.33;0.33;;;;;14.88;100.00;100972.03;5094005;27;45395;-74
2023/08/27 05:02:22;;;;;;;;;1.67;1.00;;;;;15.01;100.00;101001.44;5100125;27;45307;-73
2023/08/27 05:04:47;;;;;;;;;2.00;1.67;;;;;15.01;100.00;101009.41;5090676;27;45272;-74
2023/08/27 05:07:13;;;;;;;;;0.67;0.67;;;;;15.00;100.00;101007.69;5089019;27;45421;-74
2023/08/27 05:09:38;;;;;;;;;1.00;0.00;;;;;15.02;100.00;101011.09;5100095;27;46244;-74
2023/08/27 05:12:03;;;;;;;;;3.00;1.67;;;;;14.97;100.00;101003.41;5080043;27;46183;-74
2023/08/27 05:14:29;;;;;;;;;0.67;0.67;;;;;15.01;100.00;101007.63;5093251;27;45295;-74
2023/08/27 05:16:54;;;;;;;;;4.00;2.33;;;;;14.89;100.00;101005.69;5093370;27;45281;-74
2023/08/27 05:19:19;;;;;;;;;1.67;1.67;;;;;15.02;100.00;101011.09;5099754;27;45524;-74
2023/08/27 05:21:45;;;;;;;;;0.67;0.67;;;;;14.92;100.00;100997.50;5084982;27;45300;-74
2023/08/27 05:24:10;;;;;;;;;0.67;0.67;;;;;14.99;100.00;101011.28;5079824;27;45255;-74
2023/08/27 05:26:35;;;;;;;;;2.00;1.00;;;;;14.96;100.00;101012.34;5071357;27;45632;-74
2023/08/27 05:29:01;;;;;;;;;0.67;0.67;;;;;14.92;100.00;101010.00;5088223;27;45469;-74
2023/08/27 05:31:26;;;;;;;;;2.00;1.00;;;;;14.78;100.00;100994.00;5088780;27;45303;-73
2023/08/27 05:33:52;;;;;;;;;0.67;0.67;;;;;14.94;100.00;101022.25;5097145;27;45347;-75
2023/08/27 05:36:17;;;;;;;;;0.67;0.67;;;;;14.99;100.00;101033.47;5091611;27;45284;-74
2023/08/27 05:38:43;;;;;;;;;1.67;1.67;;;;;14.78;100.00;100989.53;5084818;27;45366;-74
2023/08/27 05:41:08;;;;;;;;;2.33;2.33;;;;;15.03;100.00;101027.00;5086376;27;45273;-73
2023/08/27 05:43:33;;;;;;;;;2.67;0.67;;;;;15.04;100.00;101020.72;5078698;28;45354;-74
2023/08/27 05:45:59;;;;;;;;;1.33;1.33;;;;;15.08;100.00;101027.56;5094583;27;45307;-74
2023/08/27 05:48:24;;;;;;;;;0.33;0.33;;;;;15.10;100.00;101030.16;5072020;27;47452;-74
2023/08/27 05:50:50;;;;;;;;;3.00;2.67;;;;;15.12;100.00;101039.75;5091430;27;45647;-74
2023/08/27 05:53:15;;;;;;;;;4.00;1.33;;;;;14.97;100.00;101015.88;5073534;27;45465;-74
2023/08/27 05:55:42;;;;;;;;;3.67;2.33;;;;;15.13;100.00;101032.63;5092340;27;45190;-74
2023/08/27 05:58:08;;;;;;;;;0.67;0.67;;;;;15.05;100.00;101025.09;5088456;27;45477;-74
2023/08/27 06:00:34;;;;;;;;;3.33;1.67;;;;;14.90;100.00;101001.22;5082673;27;45410;-74
2023/08/27 06:02:59;;;;;;;;;2.33;1.00;;;;;15.19;100.00;101036.69;5086721;27;45379;-75
2023/08/27 06:05:25;;;;;;;;;3.67;2.00;;;;;14.93;100.00;101012.53;5095057;27;45429;-74
2023/08/27 06:07:50;;;;;;;;;2.33;1.33;;;;;15.09;100.00;101026.63;5087666;27;45304;-74
2023/08/27 06:10:15;;;;;;;;;1.67;1.67;;;;;15.12;100.00;101026.44;5096453;27;45271;-74
2023/08/27 06:12:41;;;;;;;;;1.33;0.67;;;;;14.98;100.00;100999.81;5084458;27;45356;-74
2023/08/27 06:15:07;;;;;;;;;2.00;1.00;;;;;15.29;100.00;101044.03;5083921;27;45489;-74
2023/08/27 06:17:32;;;;;;;;;4.33;2.33;;;;;15.17;100.00;101010.16;5085062;27;46527;-74
2023/08/27 06:19:57;;;;;;;;;1.00;1.00;;;;;15.19;100.00;101013.56;5089560;27;45408;-74
2023/08/27 06:22:24;;;;;;;;;2.00;0.67;;;;;15.35;100.00;101032.13;5086933;27;46548;-73
2023/08/27 06:24:49;;;;;;;;;2.33;0.67;;;;;15.27;100.00;101019.28;5070030;27;46204;-74
2023/08/27 06:27:14;;;;;;;;;2.00;1.33;;;;;15.32;100.00;101009.19;5070794;27;48041;-74
2023/08/27 06:29:43;;;;;;;;;2.00;2.00;;;;;15.56;100.00;101042.31;5087745;27;45394;-73
2023/08/27 06:32:09;;;;;;;;;1.00;1.00;;;;;15.55;100.00;101031.75;5092907;27;45288;-73
2023/08/27 06:34:34;;;;;;;;;0.67;0.67;;;;;15.62;100.00;101039.25;5094300;27;45330;-73
2023/08/27 06:36:59;;;;;;;;;1.33;1.33;;;;;15.67;100.00;101035.44;5076729;28;47207;-74
2023/08/27 06:39:25;;;;;;;;;2.00;1.00;;;;;15.80;100.00;101047.03;5088564;27;45335;-74
2023/08/27 06:41:50;;;;;;;;;3.67;1.67;;;;;15.65;100.00;101022.19;5087543;27;45284;-74
2023/08/27 06:44:15;;;;;;;;;0.67;0.67;;;;;15.68;100.00;101035.34;5078512;27;45287;-74
2023/08/27 06:46:41;;;;;;;;;0.67;0.67;;;;;15.74;100.00;101026.94;5087197;27;45444;-73
2023/08/27 06:49:06;;;;;;;;;1.67;0.67;;;;;15.88;100.00;101055.38;5085967;27;45332;-73
2023/08/27 06:51:31;;;;;;;;;2.00;1.00;;;;;15.69;100.00;101025.53;5094107;27;45468;-73
2023/08/27 06:53:57;;;;;;;;;0.67;0.67;;;;;15.90;100.00;101059.66;5090319;27;45481;-74
2023/08/27 06:56:22;;;;;;;;;1.00;1.00;;;;;15.79;100.00;101037.31;5091227;27;45405;-74
2023/08/27 06:58:48;;;;;;;;;1.00;1.00;;;;;15.90;100.00;101061.50;5096102;27;45471;-73
2023/08/27 07:01:14;;;;;;;;;0.33;0.33;;;;;15.92;100.00;101059.56;5091821;27;45418;-73
2023/08/27 07:03:39;;;;;;;;;3.00;1.00;;;;;15.86;100.00;101049.31;5070668;27;45557;-74
2023/08/27 07:06:05;;;;;;;;;2.33;1.33;;;;;15.92;100.00;101043.56;5085105;27;45433;-74
2023/08/27 07:08:31;;;;;;;;;0.00;0.00;;;;;16.04;100.00;101064.09;5080815;27;45281;-74
2023/08/27 07:10:56;;;;;;;;;0.67;0.67;;;;;16.00;100.00;101051.94;5083809;28;45299;-74
2023/08/27 07:13:21;;;;;;;;;2.33;1.00;;;;;15.99;100.00;101045.72;5086836;27;45505;-74
2023/08/27 07:15:47;;;;;;;;;0.00;0.00;;;;;16.32;100.00;101079.16;5075892;27;47243;-73
2023/08/27 07:18:15;;;;;;;;;3.00;1.00;;;;;16.25;100.00;101068.03;5082271;27;45308;-73
2023/08/27 07:20:40;;;;;;;;;1.00;1.00;;;;;16.48;100.00;101077.16;5089946;27;45249;-73
2023/08/27 07:23:06;;;;;;;;;2.67;2.00;;;;;16.47;100.00;101068.28;5100879;27;45551;-74
2023/08/27 07:25:33;;;;;;;;;1.00;1.00;;;;;16.48;100.00;101064.69;5091468;27;45336;-73
2023/08/27 07:27:59;;;;;;;;;1.00;1.00;;;;;16.51;100.00;101066.28;5079590;27;45362;-74
2023/08/27 07:30:24;;;;;;;;;2.00;2.00;;;;;16.69;100.00;101075.72;5087638;27;45519;-74
2023/08/27 07:32:51;;;;;;;;;4.33;2.00;;;;;16.83;100.00;101081.00;5087903;27;45526;-74
2023/08/27 07:35:17;;;;;;;;;2.00;1.00;;;;;16.78;98.62;101067.09;5096977;27;45434;-74
2023/08/27 07:37:42;;;;;;;;;1.00;1.00;;;;;16.88;98.43;101062.84;5094055;27;45361;-74
2023/08/27 07:40:09;;;;;;;;;1.00;1.00;;;;;16.95;98.68;101073.97;5098128;27;45388;-76
2023/08/27 07:42:34;;;;;;;;;1.00;1.00;;;;;16.89;98.73;101043.16;5082537;27;45532;-76
2023/08/27 07:45:00;;;;;;;;;1.50;1.00;;;;;16.97;97.26;101058.66;5091559;27;45462;-75
2023/08/27 07:47:25;;;;;;;;;0.33;0.33;;;;;17.15;95.81;101076.94;5093769;27;45513;-75
2023/08/27 07:49:50;;;;;;;;;1.33;1.33;;;;;17.14;95.45;101053.00;5079385;27;45345;-76
2023/08/27 07:52:16;;;;;;;;;1.33;1.33;;;;;17.26;97.74;101060.16;5101111;27;45429;-75
2023/08/27 07:54:41;;;;;;;;;1.00;1.00;;;;;17.49;95.63;101064.72;5085361;27;45437;-75
2023/08/27 07:57:06;;;;;;;;;3.00;1.00;;;;;17.64;93.20;101071.66;5085823;27;45341;-75
2023/08/27 07:59:32;;;;;;;;;3.33;1.00;;;;;17.57;91.82;101045.50;5095747;27;45340;-75
2023/08/27 08:01:57;;;;;;;;;2.00;1.00;;;;;17.74;91.17;101063.81;5092721;27;45348;-76
2023/08/27 08:04:22;;;;;;;;;1.00;1.00;;;;;17.99;89.68;101066.44;5100102;27;45514;-76
2023/08/27 08:06:48;;;;;;;;;1.00;1.00;;;;;17.88;87.93;101049.44;5098564;27;45485;-75
2023/08/27 08:09:14;;;;;;;;;2.00;0.33;;;;;18.01;89.76;101064.50;5098663;27;45457;-75
2023/08/27 08:11:39;;;;;;;;;1.00;1.00;;;;;18.15;87.96;101072.38;5089695;27;45570;-75
2023/08/27 08:14:05;;;;;;;;;2.00;1.00;;;;;18.21;87.24;101052.31;5086838;27;46409;-75
2023/08/27 08:16:30;;;;;;;;;1.00;1.00;;;;;18.46;86.57;101072.72;5099658;27;45363;-76
2023/08/27 08:18:55;;;;;;;;;1.00;1.00;;;;;18.59;86.42;101068.16;5080540;27;45410;-76
2023/08/27 08:21:20;;;;;;;;;1.00;1.00;;;;;18.73;83.91;101065.31;5087236;27;45587;-75
2023/08/27 08:23:46;;;;;;;;;2.00;1.00;;;;;18.77;84.23;101077.50;5087547;27;46183;-75
2023/08/27 08:26:11;;;;;;;;;1.00;1.00;;;;;18.88;84.44;101084.72;5100149;27;45486;-75
2023/08/27 08:28:37;;;;;;;;;1.00;1.00;;;;;18.80;82.92;101039.75;5100877;27;45284;-76
2023/08/27 08:31:03;;;;;;;;;0.33;0.33;;;;;18.94;80.90;101062.78;5096370;27;45397;-76
2023/08/27 08:33:28;;;;;;;;;1.00;1.00;;;;;19.02;79.61;101044.28;5091717;27;45238;-76
2023/08/27 08:35:53;;;;;;;;;2.00;1.67;;;;;19.22;81.62;101073.06;5085795;27;45996;-76
2023/08/27 08:38:19;;;;;;;;;1.67;0.00;;;;;19.14;80.20;101073.66;5090777;27;45590;-75
2023/08/27 08:40:48;;;;;;;;;0.00;0.00;;;;;19.05;77.66;101079.75;5084381;27;45364;-75
2023/08/27 08:43:38;;;;;;;;;0.00;0.00;;;;;19.17;79.52;101073.41;5096709;27;45358;-75
2023/08/27 08:46:08;;;;;;;;;0.67;0.67;;;;;19.18;81.05;101042.94;5091272;27;45294;-75
2023/08/27 08:48:47;;;;;;;;;1.00;1.00;;;;;19.20;78.47;101048.19;5093415;27;45443;-75
2023/08/27 08:51:13;;;;;;;;;2.33;0.00;;;;;19.46;77.81;101055.06;5080817;27;45616;-76
2023/08/27 08:53:44;;;;;;;;;0.00;0.00;;;;;19.31;80.17;101031.22;5100314;27;46129;-75
2023/08/27 08:56:14;;;;;;;;;1.33;0.00;;;;;19.61;77.20;101063.69;5085926;27;45885;-75
2023/08/27 08:58:44;;;;;;;;;0.00;0.00;;;;;19.56;75.10;101041.75;5081231;27;45299;-76
2023/08/27 09:01:10;;;;;;;;;2.00;0.33;;;;;19.72;74.81;101056.50;5099399;27;45407;-76
2023/08/27 09:03:37;;;;;;;;;1.00;1.00;;;;;19.89;76.76;101051.59;5099837;27;45433;-75
2023/08/27 09:06:03;;;;;;;;;0.67;0.67;;;;;20.05;71.93;101071.69;5079084;27;45495;-75
2023/08/27 09:08:32;;;;;;;;;3.00;1.00;;;;;20.06;74.11;101056.38;5090233;27;45467;-76
2023/08/27 09:10:58;;;;;;;;;0.00;0.00;;;;;20.24;71.83;101053.06;5098161;27;45601;-76
2023/08/27 09:13:23;;;;;;;;;1.00;1.00;;;;;20.34;72.68;101063.91;5101179;27;47066;-76
2023/08/27 09:15:49;;;;;;;;;2.67;1.67;;;;;20.32;69.40;101051.59;5096699;27;45368;-76
2023/08/27 09:18:15;;;;;;;;;2.00;2.00;;;;;20.22;68.98;101036.19;5090143;27;45552;-76
2023/08/27 09:20:42;;;;;;;;;1.00;1.00;;;;;20.50;70.64;101079.59;5086773;27;45419;-76
2023/08/27 09:23:09;;;;;;;;;0.67;0.67;;;;;20.58;70.20;101067.19;5090252;27;46150;-76
2023/08/27 09:25:38;;;;;;;;;0.00;0.00;;;;;20.64;70.52;101085.53;5081409;27;45339;-73
2023/08/27 09:28:04;;;;;;;;;1.00;1.00;;;;;20.56;71.80;101076.38;5094165;27;45399;-76
2023/08/27 09:30:30;;;;;;;;;1.00;1.00;;;;;20.40;71.62;101073.28;5063778;27;45822;-76
2023/08/27 09:32:56;;;;;;;;;1.00;1.00;;;;;20.22;71.18;101055.00;5082291;27;45578;-76
2023/08/27 09:35:21;;;;;;;;;1.00;1.00;;;;;20.48;72.21;101068.13;5092096;27;45289;-76
2023/08/27 09:37:47;;;;;;;;;1.00;1.00;;;;;20.52;70.44;101065.03;5089722;27;45283;-76
2023/08/27 09:40:14;;;;;;;;;1.00;1.00;;;;;20.46;70.38;101064.69;5084302;27;45525;-76
2023/08/27 09:42:40;;;;;;;;;1.00;1.00;;;;;20.56;70.70;101079.06;5094249;27;45383;-76
2023/08/27 09:45:06;;;;;;;;;0.00;0.00;;;;;20.70;67.47;101087.69;5078944;27;45484;-74
2023/08/27 09:47:34;;;;;;;;;1.00;1.00;;;;;20.77;67.95;101077.28;5098123;27;45393;-73
2023/08/27 09:50:03;;;;;;;;;1.33;1.33;;;;;20.95;68.98;101077.50;5067639;27;45502;-73
2023/08/27 09:52:29;;;;;;;;;2.33;1.33;;;;;21.27;67.17;101095.28;5099567;27;46542;-73
2023/08/27 09:54:55;;;;;;;;;1.00;1.00;;;;;21.30;65.38;101070.81;5080886;27;45302;-73
2023/08/27 09:57:21;;;;;;;;;1.00;1.00;;;;;21.41;64.18;101080.63;5099387;27;45706;-73
2023/08/27 09:59:46;;;;;;;;;1.00;1.00;;;;;21.67;64.27;101086.41;5081057;27;45687;-73
2023/08/27 10:02:13;;;;;;;;;2.00;1.00;;;;;21.65;64.43;101048.84;5079738;27;46235;-73
2023/08/27 10:04:49;;;;;;;;;0.33;0.33;;;;;21.93;63.42;101068.78;5085073;27;45375;-75
2023/08/27 10:07:15;;;;;;;;;1.00;1.00;;;;;22.03;63.78;101090.34;5079344;28;45431;-73
2023/08/27 10:09:40;;;;;;;;;1.00;1.00;;;;;21.84;64.04;101088.44;5084146;27;45367;-73
2023/08/27 10:12:09;;;;;;;;;0.00;0.00;;;;;21.59;64.26;101076.34;5092062;27;46470;-74
2023/08/27 10:14:39;;;;;;;;;1.00;1.00;;;;;21.43;64.02;101099.34;5070280;27;45291;-74
2023/08/27 10:17:06;;;;;;;;;4.00;1.00;;;;;21.15;63.94;101079.38;5083227;27;45363;-74
2023/08/27 10:19:34;;;;;;;;;0.00;0.00;;;;;21.08;65.14;101103.22;5082783;27;45297;-74
2023/08/27 10:21:59;;;;;;;;;1.00;1.00;;;;;20.92;65.52;101104.66;5090137;27;45275;-74
2023/08/27 10:24:25;;;;;;;;;1.00;1.00;;;;;20.65;64.49;101099.78;5095259;27;45331;-73
2023/08/27 10:26:51;;;;;;;;;1.33;1.33;;;;;20.73;63.98;101087.44;5079683;27;45423;-73
2023/08/27 10:29:17;;;;;;;;;0.00;0.00;;;;;20.86;64.43;101099.81;5099449;27;45304;-74
2023/08/27 10:31:43;;;;;;;;;1.00;1.00;;;;;20.94;65.63;101094.66;5083507;27;47196;-74
2023/08/27 10:34:09;;;;;;;;;0.00;0.00;;;;;21.05;63.60;101078.41;5102221;27;45333;-74
2023/08/27 10:36:37;;;;;;;;;2.00;0.67;;;;;21.23;65.39;101107.31;5084142;27;45305;-74
2023/08/27 10:39:04;;;;;;;;;0.00;0.00;;;;;21.26;61.75;101090.06;5098054;27;45442;-76
2023/08/27 10:41:34;;;;;;;;;1.00;1.00;;;;;21.40;61.02;101105.81;5089344;27;47711;-74
2023/08/27 10:44:00;;;;;;;;;0.00;0.00;;;;;21.52;60.38;101085.06;5068298;27;45470;-74
2023/08/27 10:46:26;;;;;;;;;1.00;1.00;;;;;21.67;60.24;101063.03;5075814;27;45375;-73
2023/08/27 10:48:53;;;;;;;;;2.00;1.00;;;;;22.03;61.01;101068.81;5077687;28;45367;-74
2023/08/27 10:51:21;;;;;;;;;1.00;1.00;;;;;22.05;58.21;101065.00;5082405;27;45426;-74
2023/08/27 10:53:49;;;;;;;;;1.00;1.00;;;;;22.04;59.53;101098.31;5101206;27;45400;-74
2023/08/27 10:56:36;;;;;;;;;2.00;2.00;;;;;21.95;57.84;101095.59;5075910;27;45433;-74
2023/08/27 10:59:03;;;;;;;;;0.67;0.67;;;;;21.83;59.73;101084.03;5102184;27;45432;-74
2023/08/27 11:01:33;;;;;;;;;1.00;1.00;;;;;21.78;59.70;101080.91;5101539;27;45410;-74
2023/08/27 11:04:01;;;;;;;;;1.33;0.00;;;;;21.61;57.44;101095.03;5100144;27;46155;-74
2023/08/27 11:06:48;;;;;;;;;0.33;0.33;;;;;21.43;57.62;101102.03;5088259;27;45496;-74
2023/08/27 11:09:24;;;;;;;;;1.00;1.00;;;;;21.17;58.84;101085.50;5082908;27;45906;-74
2023/08/27 11:11:52;;;;;;;;;2.00;1.00;;;;;21.22;59.77;101097.53;5064764;28;47613;-73
2023/08/27 11:14:22;;;;;;;;;1.00;1.00;;;;;20.92;59.26;101062.50;5083681;27;45381;-74
2023/08/27 11:17:14;;;;;;;;;0.33;0.33;;;;;21.01;56.88;101090.41;5082992;27;45361;-74
2023/08/27 11:19:45;;;;;;;;;0.00;0.00;;;;;20.94;58.80;101105.41;5095486;27;45379;-74